sensor_id;sensor_type;location;lat;lon;timestamp;pressure;altitude;pressure_sealevel;temperature;humidity
19096;BME280;9680;52.520;13.332;2023-12-20T00:01:02;100663.63;;;7.60;97.36
19096;BME280;9680;52.520;13.332;2023-12-20T00:03:29;100660.13;;;7.63;97.29
19096;BME280;9680;52.520;13.332;2023-12-20T00:05:56;100663.56;;;7.63;97.14
19096;BME280;9680;52.520;13.332;2023-12-20T00:08:22;100659.25;;;7.64;97.05
19096;BME280;9680;52.520;13.332;2023-12-20T00:10:49;100664.38;;;7.65;97.01
19096;BME280;9680;52.520;13.332;2023-12-20T00:13:17;100658.38;;;7.63;97.10
19096;BME280;9680;52.520;13.332;2023-12-20T00:15:44;100653.22;;;7.62;97.07
19096;BME280;9680;52.520;13.332;2023-12-20T00:18:14;100640.25;;;7.62;97.04
19096;BME280;9680;52.520;13.332;2023-12-20T00:20:41;100642.91;;;7.60;97.17
19096;BME280;9680;52.520;13.332;2023-12-20T00:23:07;100643.78;;;7.59;97.05
19096;BME280;9680;52.520;13.332;2023-12-20T00:25:34;100642.81;;;7.63;97.33
19096;BME280;9680;52.520;13.332;2023-12-20T00:28:01;100630.75;;;7.62;97.14
19096;BME280;9680;52.520;13.332;2023-12-20T00:30:29;100639.53;;;7.56;97.23
19096;BME280;9680;52.520;13.332;2023-12-20T00:32:56;100632.72;;;7.52;97.07
19096;BME280;9680;52.520;13.332;2023-12-20T00:35:23;100631.03;;;7.51;97.26
19096;BME280;9680;52.520;13.332;2023-12-20T00:37:49;100627.50;;;7.54;97.45
19096;BME280;9680;52.520;13.332;2023-12-20T00:40:16;100630.03;;;7.55;97.43
19096;BME280;9680;52.520;13.332;2023-12-20T00:42:43;100630.84;;;7.57;97.46
19096;BME280;9680;52.520;13.332;2023-12-20T00:45:09;100633.41;;;7.59;97.48
19096;BME280;9680;52.520;13.332;2023-12-20T00:47:37;100623.94;;;7.58;97.24
19096;BME280;9680;52.520;13.332;2023-12-20T00:50:05;100630.84;;;7.57;97.57
19096;BME280;9680;52.520;13.332;2023-12-20T00:52:32;100618.69;;;7.60;97.86
19096;BME280;9680;52.520;13.332;2023-12-20T00:54:59;100624.78;;;7.58;97.48
19096;BME280;9680;52.520;13.332;2023-12-20T00:57:26;100625.66;;;7.57;97.33
19096;BME280;9680;52.520;13.332;2023-12-20T00:59:52;100624.88;;;7.55;97.69
19096;BME280;9680;52.520;13.332;2023-12-20T01:02:19;100628.25;;;7.57;97.67
19096;BME280;9680;52.520;13.332;2023-12-20T01:04:47;100632.53;;;7.60;97.54
19096;BME280;9680;52.520;13.332;2023-12-20T01:07:14;100636.84;;;7.60;97.36
19096;BME280;9680;52.520;13.332;2023-12-20T01:09:40;100646.38;;;7.59;97.53
19096;BME280;9680;52.520;13.332;2023-12-20T01:12:07;100637.00;;;7.55;97.36
19096;BME280;9680;52.520;13.332;2023-12-20T01:14:34;100634.41;;;7.55;97.65
19096;BME280;9680;52.520;13.332;2023-12-20T01:17:01;100637.78;;;7.57;97.69
19096;BME280;9680;52.520;13.332;2023-12-20T01:19:28;100644.72;;;7.56;97.82
19096;BME280;9680;52.520;13.332;2023-12-20T01:21:56;100643.00;;;7.55;98.03
19096;BME280;9680;52.520;13.332;2023-12-20T01:24:23;100655.50;;;7.41;97.75
19096;BME280;9680;52.520;13.332;2023-12-20T01:26:49;100639.13;;;7.39;98.43
19096;BME280;9680;52.520;13.332;2023-12-20T01:29:16;100641.81;;;7.36;98.95
19096;BME280;9680;52.520;13.332;2023-12-20T01:31:43;100637.44;;;7.38;99.13
19096;BME280;9680;52.520;13.332;2023-12-20T01:34:09;100640.25;;;7.30;99.23
19096;BME280;9680;52.520;13.332;2023-12-20T01:36:36;100640.28;;;7.27;99.55
19096;BME280;9680;52.520;13.332;2023-12-20T01:39:04;100642.84;;;7.30;99.78
19096;BME280;9680;52.520;13.332;2023-12-20T01:41:31;100643.03;;;7.22;99.70
19096;BME280;9680;52.520;13.332;2023-12-20T01:43:58;100633.53;;;7.21;100.00
19096;BME280;9680;52.520;13.332;2023-12-20T01:46:25;100636.94;;;7.23;100.00
19096;BME280;9680;52.520;13.332;2023-12-20T01:48:52;100633.47;;;7.24;100.00
19096;BME280;9680;52.520;13.332;2023-12-20T01:51:20;100631.94;;;7.16;100.00
19096;BME280;9680;52.520;13.332;2023-12-20T01:53:47;100628.53;;;7.13;100.00
19096;BME280;9680;52.520;13.332;2023-12-20T01:56:16;100632.97;;;7.10;100.00
19096;BME280;9680;52.520;13.332;2023-12-20T01:58:44;100630.41;;;7.08;100.00
19096;BME280;9680;52.520;13.332;2023-12-20T02:01:11;100633.16;;;7.02;100.00
19096;BME280;9680;52.520;13.332;2023-12-20T02:03:39;100638.50;;;6.94;100.00
19096;BME280;9680;52.520;13.332;2023-12-20T02:06:07;100623.03;;;6.91;100.00
19096;BME280;9680;52.520;13.332;2023-12-20T02:08:34;100621.34;;;6.90;100.00
19096;BME280;9680;52.520;13.332;2023-12-20T02:11:00;100618.81;;;6.87;100.00
19096;BME280;9680;52.520;13.332;2023-12-20T02:13:30;100613.63;;;6.89;100.00
19096;BME280;9680;52.520;13.332;2023-12-20T02:15:57;100618.63;;;6.96;100.00
19096;BME280;9680;52.520;13.332;2023-12-20T02:18:24;100619.31;;;7.03;100.00
19096;BME280;9680;52.520;13.332;2023-12-20T02:20:51;100621.94;;;7.02;100.00
19096;BME280;9680;52.520;13.332;2023-12-20T02:23:19;100616.03;;;6.96;100.00
19096;BME280;9680;52.520;13.332;2023-12-20T02:25:46;100608.13;;;7.01;100.00
19096;BME280;9680;52.520;13.332;2023-12-20T02:28:13;100607.16;;;7.05;100.00
19096;BME280;9680;52.520;13.332;2023-12-20T02:30:39;100618.31;;;7.09;100.00
19096;BME280;9680;52.520;13.332;2023-12-20T02:33:07;100614.88;;;7.08;100.00
19096;BME280;9680;52.520;13.332;2023-12-20T02:35:36;100622.69;;;7.07;100.00
19096;BME280;9680;52.520;13.332;2023-12-20T02:38:03;100619.31;;;7.03;100.00
19096;BME280;9680;52.520;13.332;2023-12-20T02:40:31;100610.72;;;7.01;100.00
19096;BME280;9680;52.520;13.332;2023-12-20T02:42:58;100611.50;;;7.05;100.00
19096;BME280;9680;52.520;13.332;2023-12-20T02:45:25;100604.72;;;7.01;100.00
19096;BME280;9680;52.520;13.332;2023-12-20T02:47:52;100608.94;;;7.03;100.00
19096;BME280;9680;52.520;13.332;2023-12-20T02:50:19;100615.06;;;7.01;100.00
19096;BME280;9680;52.520;13.332;2023-12-20T02:52:45;100618.56;;;6.99;100.00
19096;BME280;9680;52.520;13.332;2023-12-20T02:55:12;100610.72;;;7.03;100.00
19096;BME280;9680;52.520;13.332;2023-12-20T02:57:40;100609.91;;;7.01;100.00
19096;BME280;9680;52.520;13.332;2023-12-20T03:00:08;100616.84;;;6.98;100.00
19096;BME280;9680;52.520;13.332;2023-12-20T03:02:36;100612.56;;;6.97;100.00
19096;BME280;9680;52.520;13.332;2023-12-20T03:05:03;100609.19;;;6.94;100.00
19096;BME280;9680;52.520;13.332;2023-12-20T03:07:29;100618.56;;;6.98;100.00
19096;BME280;9680;52.520;13.332;2023-12-20T03:09:56;100619.47;;;6.97;100.00
19096;BME280;9680;52.520;13.332;2023-12-20T03:12:23;100620.28;;;6.99;100.00
19096;BME280;9680;52.520;13.332;2023-12-20T03:14:51;100622.91;;;6.97;100.00
19096;BME280;9680;52.520;13.332;2023-12-20T03:17:17;100620.34;;;6.97;100.00
19096;BME280;9680;52.520;13.332;2023-12-20T03:19:46;100626.41;;;6.96;100.00
19096;BME280;9680;52.520;13.332;2023-12-20T03:22:12;100623.03;;;6.91;100.00
19096;BME280;9680;52.520;13.332;2023-12-20T03:24:39;100631.69;;;6.92;99.99
19096;BME280;9680;52.520;13.332;2023-12-20T03:27:05;100624.00;;;6.87;99.90
19096;BME280;9680;52.520;13.332;2023-12-20T03:29:32;100623.09;;;6.90;99.55
19096;BME280;9680;52.520;13.332;2023-12-20T03:32:00;100624.81;;;6.91;99.86
19096;BME280;9680;52.520;13.332;2023-12-20T03:34:27;100623.03;;;6.93;99.57
19096;BME280;9680;52.520;13.332;2023-12-20T03:36:54;100623.84;;;6.95;99.21
19096;BME280;9680;52.520;13.332;2023-12-20T03:39:21;100620.38;;;6.94;98.42
19096;BME280;9680;52.520;13.332;2023-12-20T03:41:47;100627.34;;;6.92;98.22
19096;BME280;9680;52.520;13.332;2023-12-20T03:44:14;100628.31;;;6.88;98.12
19096;BME280;9680;52.520;13.332;2023-12-20T03:46:41;100618.75;;;6.90;98.03
19096;BME280;9680;52.520;13.332;2023-12-20T03:49:09;100617.09;;;6.88;97.39
19096;BME280;9680;52.520;13.332;2023-12-20T03:51:35;100612.09;;;6.81;97.70
19096;BME280;9680;52.520;13.332;2023-12-20T03:54:02;100615.56;;;6.80;97.77
19096;BME280;9680;52.520;13.332;2023-12-20T03:56:29;100621.69;;;6.76;97.75
19096;BME280;9680;52.520;13.332;2023-12-20T03:58:56;100615.72;;;6.73;97.43
19096;BME280;9680;52.520;13.332;2023-12-20T04:01:23;100609.94;;;6.63;97.58
19096;BME280;9680;52.520;13.332;2023-12-20T04:03:49;100607.38;;;6.61;97.84
19096;BME280;9680;52.520;13.332;2023-12-20T04:06:17;100606.47;;;6.62;97.90
19096;BME280;9680;52.520;13.332;2023-12-20T04:08:44;100605.59;;;6.63;97.70
19096;BME280;9680;52.520;13.332;2023-12-20T04:11:11;100600.50;;;6.60;97.16
19096;BME280;9680;52.520;13.332;2023-12-20T04:13:37;100594.56;;;6.55;96.59
19096;BME280;9680;52.520;13.332;2023-12-20T04:16:05;100593.84;;;6.50;96.30
19096;BME280;9680;52.520;13.332;2023-12-20T04:18:31;100593.97;;;6.44;96.49
19096;BME280;9680;52.520;13.332;2023-12-20T04:20:58;100589.72;;;6.41;96.78
19096;BME280;9680;52.520;13.332;2023-12-20T04:23:26;100584.59;;;6.39;96.74
19096;BME280;9680;52.520;13.332;2023-12-20T04:25:53;100585.63;;;6.32;96.47
19096;BME280;9680;52.520;13.332;2023-12-20T04:28:20;100588.25;;;6.29;96.52
19096;BME280;9680;52.520;13.332;2023-12-20T04:30:46;100577.13;;;6.25;96.53
19096;BME280;9680;52.520;13.332;2023-12-20T04:33:13;100587.63;;;6.18;96.67
19096;BME280;9680;52.520;13.332;2023-12-20T04:35:40;100586.88;;;6.12;96.75
19096;BME280;9680;52.520;13.332;2023-12-20T04:38:08;100589.69;;;6.03;96.84
19096;BME280;9680;52.520;13.332;2023-12-20T04:40:36;100603.53;;;5.99;97.14
19096;BME280;9680;52.520;13.332;2023-12-20T04:43:03;100596.81;;;5.90;97.29
19096;BME280;9680;52.520;13.332;2023-12-20T04:45:30;100594.19;;;5.92;98.04
19096;BME280;9680;52.520;13.332;2023-12-20T04:47:56;100595.91;;;5.93;97.88
19096;BME280;9680;52.520;13.332;2023-12-20T04:50:23;100593.25;;;5.96;98.17
19096;BME280;9680;52.520;13.332;2023-12-20T04:52:50;100588.03;;;6.01;97.73
19096;BME280;9680;52.520;13.332;2023-12-20T04:55:16;100589.69;;;6.03;97.59
19096;BME280;9680;52.520;13.332;2023-12-20T04:57:44;100587.84;;;6.08;97.78
19096;BME280;9680;52.520;13.332;2023-12-20T05:00:12;100589.34;;;6.19;97.75
19096;BME280;9680;52.520;13.332;2023-12-20T05:02:40;100595.53;;;6.11;96.56
19096;BME280;9680;52.520;13.332;2023-12-20T05:05:08;100599.06;;;6.09;96.73
19096;BME280;9680;52.520;13.332;2023-12-20T05:07:34;100602.47;;;6.11;97.38
19096;BME280;9680;52.520;13.332;2023-12-20T05:10:02;100603.09;;;6.21;97.47
19096;BME280;9680;52.520;13.332;2023-12-20T05:12:29;100596.91;;;6.28;96.68
19096;BME280;9680;52.520;13.332;2023-12-20T05:14:58;100592.66;;;6.24;95.90
19096;BME280;9680;52.520;13.332;2023-12-20T05:17:24;100597.22;;;6.14;95.13
19096;BME280;9680;52.520;13.332;2023-12-20T05:19:51;100600.06;;;6.00;95.34
19096;BME280;9680;52.520;13.332;2023-12-20T05:22:18;100597.75;;;5.86;95.21
19096;BME280;9680;52.520;13.332;2023-12-20T05:24:45;100598.88;;;5.74;95.60
19096;BME280;9680;52.520;13.332;2023-12-20T05:27:12;100604.19;;;5.66;95.85
19096;BME280;9680;52.520;13.332;2023-12-20T05:29:38;100608.53;;;5.63;96.34
19096;BME280;9680;52.520;13.332;2023-12-20T05:32:06;100608.59;;;5.61;96.53
19096;BME280;9680;52.520;13.332;2023-12-20T05:34:33;100594.81;;;5.61;96.68
19096;BME280;9680;52.520;13.332;2023-12-20T05:37:00;100594.94;;;5.54;96.39
19096;BME280;9680;52.520;13.332;2023-12-20T05:39:27;100595.00;;;5.51;96.53
19096;BME280;9680;52.520;13.332;2023-12-20T05:41:54;100590.75;;;5.47;96.58
19096;BME280;9680;52.520;13.332;2023-12-20T05:44:20;100598.56;;;5.44;96.59
19096;BME280;9680;52.520;13.332;2023-12-20T05:46:47;100595.31;;;5.34;96.81
19096;BME280;9680;52.520;13.332;2023-12-20T05:49:15;100584.19;;;5.31;96.58
19096;BME280;9680;52.520;13.332;2023-12-20T05:51:42;100591.13;;;5.29;97.07
19096;BME280;9680;52.520;13.332;2023-12-20T05:54:09;100587.72;;;5.25;97.21
19096;BME280;9680;52.520;13.332;2023-12-20T05:56:35;100590.34;;;5.22;97.32
19096;BME280;9680;52.520;13.332;2023-12-20T05:59:02;100585.19;;;5.22;97.28
19096;BME280;9680;52.520;13.332;2023-12-20T06:01:29;100591.19;;;5.24;97.46
19096;BME280;9680;52.520;13.332;2023-12-20T06:03:56;100594.56;;;5.28;97.78
19096;BME280;9680;52.520;13.332;2023-12-20T06:06:24;100585.00;;;5.34;97.76
19096;BME280;9680;52.520;13.332;2023-12-20T06:08:51;100581.44;;;5.40;97.45
19096;BME280;9680;52.520;13.332;2023-12-20T06:11:17;100580.59;;;5.39;96.83
19096;BME280;9680;52.520;13.332;2023-12-20T06:13:44;100575.50;;;5.35;96.33
19096;BME280;9680;52.520;13.332;2023-12-20T06:16:11;100574.72;;;5.30;96.38
19096;BME280;9680;52.520;13.332;2023-12-20T06:18:37;100572.13;;;5.31;96.54
19096;BME280;9680;52.520;13.332;2023-12-20T06:21:04;100576.44;;;5.31;96.68
19096;BME280;9680;52.520;13.332;2023-12-20T06:23:37;100573.78;;;5.34;96.80
19096;BME280;9680;52.520;13.332;2023-12-20T06:26:04;100578.91;;;5.37;96.86
19096;BME280;9680;52.520;13.332;2023-12-20T06:28:31;100585.69;;;5.43;96.82
19096;BME280;9680;52.520;13.332;2023-12-20T06:30:58;100585.56;;;5.49;96.92
19096;BME280;9680;52.520;13.332;2023-12-20T06:33:26;100581.16;;;5.54;96.18
19096;BME280;9680;52.520;13.332;2023-12-20T06:35:53;100582.75;;;5.60;95.91
19096;BME280;9680;52.520;13.332;2023-12-20T06:38:20;100581.81;;;5.65;95.90
19096;BME280;9680;52.520;13.332;2023-12-20T06:40:48;100584.31;;;5.68;95.40
19096;BME280;9680;52.520;13.332;2023-12-20T06:43:15;100573.16;;;5.66;94.88
19096;BME280;9680;52.520;13.332;2023-12-20T06:45:43;100584.38;;;5.67;94.88
19096;BME280;9680;52.520;13.332;2023-12-20T06:48:10;100574.03;;;5.67;94.59
19096;BME280;9680;52.520;13.332;2023-12-20T06:50:38;100568.88;;;5.65;94.68
19096;BME280;9680;52.520;13.332;2023-12-20T06:53:05;100565.41;;;5.68;94.76
19096;BME280;9680;52.520;13.332;2023-12-20T06:55:33;100574.81;;;5.71;94.59
19096;BME280;9680;52.520;13.332;2023-12-20T06:58:02;100563.53;;;5.75;94.51
19096;BME280;9680;52.520;13.332;2023-12-20T07:00:29;100569.56;;;5.75;94.02
19096;BME280;9680;52.520;13.332;2023-12-20T07:02:55;100557.47;;;5.76;93.69
19096;BME280;9680;52.520;13.332;2023-12-20T07:05:22;100548.91;;;5.74;93.29
19096;BME280;9680;52.520;13.332;2023-12-20T07:07:49;100563.53;;;5.75;93.76
19096;BME280;9680;52.520;13.332;2023-12-20T07:10:15;100559.16;;;5.78;93.58
19096;BME280;9680;52.520;13.332;2023-12-20T07:12:42;100556.50;;;5.81;93.29
19096;BME280;9680;52.520;13.332;2023-12-20T07:15:11;100570.25;;;5.83;92.77
19096;BME280;9680;52.520;13.332;2023-12-20T07:17:38;100567.59;;;5.85;92.72
19096;BME280;9680;52.520;13.332;2023-12-20T07:20:05;100558.13;;;5.86;92.62
19096;BME280;9680;52.520;13.332;2023-12-20T07:22:35;100555.56;;;5.86;92.42
19096;BME280;9680;52.520;13.332;2023-12-20T07:25:02;100560.78;;;5.82;91.93
19096;BME280;9680;52.520;13.332;2023-12-20T07:27:29;100555.56;;;5.86;92.31
19096;BME280;9680;52.520;13.332;2023-12-20T07:29:55;100555.47;;;5.89;92.47
19096;BME280;9680;52.520;13.332;2023-12-20T07:32:23;100550.25;;;5.92;91.98
19096;BME280;9680;52.520;13.332;2023-12-20T07:34:50;100554.47;;;5.94;92.02
19096;BME280;9680;52.520;13.332;2023-12-20T07:37:17;100540.66;;;5.97;91.56
19096;BME280;9680;52.520;13.332;2023-12-20T07:39:44;100547.59;;;5.95;91.60
19096;BME280;9680;52.520;13.332;2023-12-20T07:42:10;100540.72;;;5.94;91.51
19096;BME280;9680;52.520;13.332;2023-12-20T07:44:37;100548.47;;;5.94;91.26
19096;BME280;9680;52.520;13.332;2023-12-20T07:47:04;100544.13;;;5.96;91.20
19096;BME280;9680;52.520;13.332;2023-12-20T07:49:32;100542.34;;;6.00;91.28
19096;BME280;9680;52.520;13.332;2023-12-20T07:51:59;100544.00;;;6.04;91.27
19096;BME280;9680;52.520;13.332;2023-12-20T07:54:26;100532.78;;;6.03;90.84
19096;BME280;9680;52.520;13.332;2023-12-20T07:56:52;100542.22;;;6.06;90.60
19096;BME280;9680;52.520;13.332;2023-12-20T07:59:19;100543.03;;;6.08;90.92
19096;BME280;9680;52.520;13.332;2023-12-20T08:01:46;100548.16;;;6.11;90.42
19096;BME280;9680;52.520;13.332;2023-12-20T08:04:12;100529.91;;;6.16;90.23
19096;BME280;9680;52.520;13.332;2023-12-20T08:06:40;100537.59;;;6.19;89.59
19096;BME280;9680;52.520;13.332;2023-12-20T08:09:07;100545.28;;;6.23;89.42
19096;BME280;9680;52.520;13.332;2023-12-20T08:11:34;100544.38;;;6.24;89.11
19096;BME280;9680;52.520;13.332;2023-12-20T08:14:00;100539.09;;;6.29;89.24
19096;BME280;9680;52.520;13.332;2023-12-20T08:16:27;100545.22;;;6.25;88.44
19096;BME280;9680;52.520;13.332;2023-12-20T08:18:54;100552.22;;;6.21;88.75
19096;BME280;9680;52.520;13.332;2023-12-20T08:21:20;100554.97;;;6.14;88.87
19096;BME280;9680;52.520;13.332;2023-12-20T08:23:50;100555.03;;;6.12;89.04
19096;BME280;9680;52.520;13.332;2023-12-20T08:26:19;100545.44;;;6.16;89.44
19096;BME280;9680;52.520;13.332;2023-12-20T08:28:47;100556.56;;;6.19;89.33
19096;BME280;9680;52.520;13.332;2023-12-20T08:31:14;100547.81;;;6.25;89.11
19096;BME280;9680;52.520;13.332;2023-12-20T08:33:43;100548.53;;;6.32;89.04
19096;BME280;9680;52.520;13.332;2023-12-20T08:36:10;100537.16;;;6.39;89.08
19096;BME280;9680;52.520;13.332;2023-12-20T08:38:37;100538.69;;;6.48;88.97
19096;BME280;9680;52.520;13.332;2023-12-20T08:41:06;100535.78;;;6.60;88.51
19096;BME280;9680;52.520;13.332;2023-12-20T08:43:34;100534.75;;;6.67;88.00
19096;BME280;9680;52.520;13.332;2023-12-20T08:46:01;100539.53;;;6.83;88.20
19096;BME280;9680;52.520;13.332;2023-12-20T08:48:28;100517.72;;;6.92;87.83
19096;BME280;9680;52.520;13.332;2023-12-20T08:50:55;100522.94;;;6.90;86.75
19096;BME280;9680;52.520;13.332;2023-12-20T08:53:21;100522.28;;;6.82;86.14
19096;BME280;9680;52.520;13.332;2023-12-20T08:55:48;100528.41;;;6.79;86.52
19096;BME280;9680;52.520;13.332;2023-12-20T08:58:16;100528.66;;;6.70;86.29
19096;BME280;9680;52.520;13.332;2023-12-20T09:00:43;100521.78;;;6.69;86.47
19096;BME280;9680;52.520;13.332;2023-12-20T09:03:10;100524.88;;;6.82;86.80
19096;BME280;9680;52.520;13.332;2023-12-20T09:05:37;100514.25;;;6.93;86.04
19096;BME280;9680;52.520;13.332;2023-12-20T09:08:04;100514.88;;;7.03;85.56
19096;BME280;9680;52.520;13.332;2023-12-20T09:10:33;100510.19;;;7.16;85.43
19096;BME280;9680;52.520;13.332;2023-12-20T09:13:00;100510.00;;;7.22;84.87
19096;BME280;9680;52.520;13.332;2023-12-20T09:15:28;100515.16;;;7.23;84.37
19096;BME280;9680;52.520;13.332;2023-12-20T09:17:55;100508.28;;;7.22;84.37
19096;BME280;9680;52.520;13.332;2023-12-20T09:20:22;100511.69;;;7.24;84.10
19096;BME280;9680;52.520;13.332;2023-12-20T09:22:49;100499.44;;;7.29;83.73
19096;BME280;9680;52.520;13.332;2023-12-20T09:25:16;100492.56;;;7.28;83.31
19096;BME280;9680;52.520;13.332;2023-12-20T09:27:43;100491.88;;;7.22;82.48
19096;BME280;9680;52.520;13.332;2023-12-20T09:30:10;100499.00;;;7.13;83.26
19096;BME280;9680;52.520;13.332;2023-12-20T09:32:38;100500.63;;;7.18;83.36
19096;BME280;9680;52.520;13.332;2023-12-20T09:35:05;100485.72;;;7.26;82.85
19096;BME280;9680;52.520;13.332;2023-12-20T09:37:34;100484.91;;;7.24;82.61
19096;BME280;9680;52.520;13.332;2023-12-20T09:40:01;100488.38;;;7.24;82.39
19096;BME280;9680;52.520;13.332;2023-12-20T09:42:33;100486.75;;;7.20;81.89
19096;BME280;9680;52.520;13.332;2023-12-20T09:45:08;100480.69;;;7.21;81.91
19096;BME280;9680;52.520;13.332;2023-12-20T09:47:35;100485.81;;;7.23;81.92
19096;BME280;9680;52.520;13.332;2023-12-20T09:50:05;100478.75;;;7.28;82.40
19096;BME280;9680;52.520;13.332;2023-12-20T09:52:32;100481.47;;;7.23;81.64
19096;BME280;9680;52.520;13.332;2023-12-20T09:55:00;100477.19;;;7.22;81.07
19096;BME280;9680;52.520;13.332;2023-12-20T09:57:29;100481.50;;;7.22;81.74
19096;BME280;9680;52.520;13.332;2023-12-20T09:59:56;100479.78;;;7.22;81.60
19096;BME280;9680;52.520;13.332;2023-12-20T10:02:25;100472.84;;;7.23;81.27
19096;BME280;9680;52.520;13.332;2023-12-20T10:04:53;100475.31;;;7.27;81.35
19096;BME280;9680;52.520;13.332;2023-12-20T10:07:22;100469.16;;;7.32;81.61
19096;BME280;9680;52.520;13.332;2023-12-20T10:09:49;100471.66;;;7.35;81.28
19096;BME280;9680;52.520;13.332;2023-12-20T10:12:17;100457.88;;;7.34;80.37
19096;BME280;9680;52.520;13.332;2023-12-20T10:14:44;100452.78;;;7.31;80.49
19096;BME280;9680;52.520;13.332;2023-12-20T10:17:10;100458.78;;;7.32;80.63
19096;BME280;9680;52.520;13.332;2023-12-20T10:19:37;100450.13;;;7.33;80.67
19096;BME280;9680;52.520;13.332;2023-12-20T10:22:04;100450.13;;;7.33;80.41
19096;BME280;9680;52.520;13.332;2023-12-20T10:24:33;100438.94;;;7.31;79.91
19096;BME280;9680;52.520;13.332;2023-12-20T10:27:03;100439.88;;;7.28;79.90
19096;BME280;9680;52.520;13.332;2023-12-20T10:29:34;100444.31;;;7.24;80.27
19096;BME280;9680;52.520;13.332;2023-12-20T10:32:21;100433.94;;;7.24;80.57
19096;BME280;9680;52.520;13.332;2023-12-20T10:34:49;100430.38;;;7.28;80.48
19096;BME280;9680;52.520;13.332;2023-12-20T10:37:16;100419.97;;;7.30;80.13
19096;BME280;9680;52.520;13.332;2023-12-20T10:39:48;100421.69;;;7.31;79.63
19096;BME280;9680;52.520;13.332;2023-12-20T10:42:16;100393.91;;;7.35;80.14
19096;BME280;9680;52.520;13.332;2023-12-20T10:44:43;100399.53;;;7.49;79.62
19096;BME280;9680;52.520;13.332;2023-12-20T10:47:12;100399.44;;;7.52;79.23
19096;BME280;9680;52.520;13.332;2023-12-20T10:49:40;100399.34;;;7.55;78.82
19096;BME280;9680;52.520;13.332;2023-12-20T10:52:08;100392.53;;;7.51;78.57
19096;BME280;9680;52.520;13.332;2023-12-20T10:54:35;100398.63;;;7.50;78.52
19096;BME280;9680;52.520;13.332;2023-12-20T10:57:05;100396.03;;;7.50;78.45
19096;BME280;9680;52.520;13.332;2023-12-20T10:59:33;100391.81;;;7.48;78.46
19096;BME280;9680;52.520;13.332;2023-12-20T11:02:02;100376.44;;;7.41;78.44
19096;BME280;9680;52.520;13.332;2023-12-20T11:04:37;100381.63;;;7.41;78.28
19096;BME280;9680;52.520;13.332;2023-12-20T11:07:15;100372.00;;;7.45;78.44
19096;BME280;9680;52.520;13.332;2023-12-20T11:09:48;100360.63;;;7.51;78.91
19096;BME280;9680;52.520;13.332;2023-12-20T11:12:21;100354.47;;;7.53;78.95
19096;BME280;9680;52.520;13.332;2023-12-20T11:14:53;100367.28;;;7.58;79.37
19096;BME280;9680;52.520;13.332;2023-12-20T11:17:22;100361.16;;;7.61;79.45
19096;BME280;9680;52.520;13.332;2023-12-20T11:20:07;100333.53;;;7.60;80.05
19096;BME280;9680;52.520;13.332;2023-12-20T11:22:36;100340.47;;;7.59;80.03
19096;BME280;9680;52.520;13.332;2023-12-20T11:25:05;100332.63;;;7.61;80.28
19096;BME280;9680;52.520;13.332;2023-12-20T11:27:35;100337.88;;;7.59;80.40
19096;BME280;9680;52.520;13.332;2023-12-20T11:30:04;100332.91;;;7.53;80.39
19096;BME280;9680;52.520;13.332;2023-12-20T11:32:34;100319.25;;;7.48;80.56
19096;BME280;9680;52.520;13.332;2023-12-20T11:35:17;100327.16;;;7.43;80.99
19096;BME280;9680;52.520;13.332;2023-12-20T11:37:45;100324.56;;;7.43;81.09
19096;BME280;9680;52.520;13.332;2023-12-20T11:40:14;100317.53;;;7.47;81.34
19096;BME280;9680;52.520;13.332;2023-12-20T11:42:44;100303.53;;;7.52;81.10
19096;BME280;9680;52.520;13.332;2023-12-20T11:45:13;100300.81;;;7.55;80.78
19096;BME280;9680;52.520;13.332;2023-12-20T11:47:42;100301.72;;;7.54;80.73
19096;BME280;9680;52.520;13.332;2023-12-20T11:50:09;100300.00;;;7.55;80.80
19096;BME280;9680;52.520;13.332;2023-12-20T11:52:36;100285.25;;;7.57;81.19
19096;BME280;9680;52.520;13.332;2023-12-20T11:55:04;100286.06;;;7.57;81.13
19096;BME280;9680;52.520;13.332;2023-12-20T11:57:31;100277.38;;;7.60;81.12
19096;BME280;9680;52.520;13.332;2023-12-20T11:59:59;100269.59;;;7.60;80.95
19096;BME280;9680;52.520;13.332;2023-12-20T12:02:26;100260.78;;;7.66;81.25
19096;BME280;9680;52.520;13.332;2023-12-20T12:04:52;100253.50;;;7.76;81.09
19096;BME280;9680;52.520;13.332;2023-12-20T12:07:21;100248.06;;;7.83;80.20
19096;BME280;9680;52.520;13.332;2023-12-20T12:09:47;100233.44;;;7.81;79.84
19096;BME280;9680;52.520;13.332;2023-12-20T12:12:14;100225.78;;;7.78;79.66
19096;BME280;9680;52.520;13.332;2023-12-20T12:14:41;100228.47;;;7.75;79.67
19096;BME280;9680;52.520;13.332;2023-12-20T12:17:11;100217.09;;;7.79;79.89
19096;BME280;9680;52.520;13.332;2023-12-20T12:19:38;100220.47;;;7.81;79.24
19096;BME280;9680;52.520;13.332;2023-12-20T12:22:06;100219.59;;;7.82;79.34
19096;BME280;9680;52.520;13.332;2023-12-20T12:24:35;100206.72;;;7.79;79.21
19096;BME280;9680;52.520;13.332;2023-12-20T12:27:03;100199.13;;;7.74;79.12
19096;BME280;9680;52.520;13.332;2023-12-20T12:29:30;100209.75;;;7.66;79.43
19096;BME280;9680;52.520;13.332;2023-12-20T12:31:56;100198.81;;;7.58;79.82
19096;BME280;9680;52.520;13.332;2023-12-20T12:34:27;100200.16;;;7.43;80.55
19096;BME280;9680;52.520;13.332;2023-12-20T12:36:53;100197.56;;;7.43;81.13
19096;BME280;9680;52.520;13.332;2023-12-20T12:39:20;100192.59;;;7.37;81.36
19096;BME280;9680;52.520;13.332;2023-12-20T12:41:47;100188.47;;;7.31;81.27
19096;BME280;9680;52.520;13.332;2023-12-20T12:44:14;100180.09;;;7.23;82.25
19096;BME280;9680;52.520;13.332;2023-12-20T12:46:40;100170.00;;;7.15;82.93
19096;BME280;9680;52.520;13.332;2023-12-20T12:49:07;100169.28;;;7.10;83.16
19096;BME280;9680;52.520;13.332;2023-12-20T12:51:35;100169.34;;;7.08;83.88
19096;BME280;9680;52.520;13.332;2023-12-20T12:54:02;100162.47;;;7.07;83.96
19096;BME280;9680;52.520;13.332;2023-12-20T12:56:29;100169.34;;;7.08;84.35
19096;BME280;9680;52.520;13.332;2023-12-20T12:58:56;100164.94;;;7.10;84.56
19096;BME280;9680;52.520;13.332;2023-12-20T13:01:22;100166.72;;;7.10;84.84